sensor_id;sensor_type;location;lat;lon;timestamp;temperature;humidity
74101;DHT22;62462;52.530;21.682;2023-04-06T00:01:46;5.00;56.80
74101;DHT22;62462;52.530;21.682;2023-04-06T00:04:12;5.00;56.90
74101;DHT22;62462;52.530;21.682;2023-04-06T00:06:38;4.90;56.90
74101;DHT22;62462;52.530;21.682;2023-04-06T00:09:04;4.90;56.90
74101;DHT22;62462;52.530;21.682;2023-04-06T00:11:29;4.90;56.90
74101;DHT22;62462;52.530;21.682;2023-04-06T00:13:55;4.90;56.90
74101;DHT22;62462;52.530;21.682;2023-04-06T00:16:21;4.90;57.00
74101;DHT22;62462;52.530;21.682;2023-04-06T00:18:47;4.80;57.10
74101;DHT22;62462;52.530;21.682;2023-04-06T00:21:13;4.80;57.20
74101;DHT22;62462;52.530;21.682;2023-04-06T00:23:40;4.80;57.40
74101;DHT22;62462;52.530;21.682;2023-04-06T00:26:06;4.80;57.40
74101;DHT22;62462;52.530;21.682;2023-04-06T00:28:32;4.70;57.40
74101;DHT22;62462;52.530;21.682;2023-04-06T00:30:58;4.70;57.40
74101;DHT22;62462;52.530;21.682;2023-04-06T00:33:24;4.70;57.70
74101;DHT22;62462;52.530;21.682;2023-04-06T00:35:50;4.70;58.00
74101;DHT22;62462;52.530;21.682;2023-04-06T00:38:17;4.60;58.00
74101;DHT22;62462;52.530;21.682;2023-04-06T00:40:43;4.60;58.00
74101;DHT22;62462;52.530;21.682;2023-04-06T00:43:12;4.60;58.30
74101;DHT22;62462;52.530;21.682;2023-04-06T00:45:39;4.60;58.20
74101;DHT22;62462;52.530;21.682;2023-04-06T00:48:06;4.60;58.10
74101;DHT22;62462;52.530;21.682;2023-04-06T00:50:32;4.60;58.30
74101;DHT22;62462;52.530;21.682;2023-04-06T00:52:59;4.60;58.30
74101;DHT22;62462;52.530;21.682;2023-04-06T00:55:26;4.60;58.40
74101;DHT22;62462;52.530;21.682;2023-04-06T00:57:52;4.60;58.60
74101;DHT22;62462;52.530;21.682;2023-04-06T01:00:18;4.60;59.70
74101;DHT22;62462;52.530;21.682;2023-04-06T01:02:44;4.50;58.90
74101;DHT22;62462;52.530;21.682;2023-04-06T01:05:13;4.50;58.90
74101;DHT22;62462;52.530;21.682;2023-04-06T01:07:39;4.60;59.10
74101;DHT22;62462;52.530;21.682;2023-04-06T01:10:06;4.60;59.10
74101;DHT22;62462;52.530;21.682;2023-04-06T01:12:32;4.60;59.20
74101;DHT22;62462;52.530;21.682;2023-04-06T01:14:58;4.60;59.00
74101;DHT22;62462;52.530;21.682;2023-04-06T01:17:23;4.60;58.90
74101;DHT22;62462;52.530;21.682;2023-04-06T01:19:49;4.60;58.80
74101;DHT22;62462;52.530;21.682;2023-04-06T01:22:17;4.50;58.90
74101;DHT22;62462;52.530;21.682;2023-04-06T01:24:43;4.50;59.00
74101;DHT22;62462;52.530;21.682;2023-04-06T01:27:09;4.50;59.80
74101;DHT22;62462;52.530;21.682;2023-04-06T01:29:35;4.50;58.90
74101;DHT22;62462;52.530;21.682;2023-04-06T01:32:01;4.40;59.00
74101;DHT22;62462;52.530;21.682;2023-04-06T01:34:27;4.40;59.20
74101;DHT22;62462;52.530;21.682;2023-04-06T01:36:52;4.40;59.10
74101;DHT22;62462;52.530;21.682;2023-04-06T01:39:19;4.40;59.10
74101;DHT22;62462;52.530;21.682;2023-04-06T01:41:45;4.40;59.10
74101;DHT22;62462;52.530;21.682;2023-04-06T01:44:15;4.30;59.20
74101;DHT22;62462;52.530;21.682;2023-04-06T01:46:41;4.30;59.40
74101;DHT22;62462;52.530;21.682;2023-04-06T01:49:07;4.30;59.80
74101;DHT22;62462;52.530;21.682;2023-04-06T01:51:33;4.30;59.70
74101;DHT22;62462;52.530;21.682;2023-04-06T01:53:59;4.30;59.80
74101;DHT22;62462;52.530;21.682;2023-04-06T01:56:25;4.30;59.80
74101;DHT22;62462;52.530;21.682;2023-04-06T01:58:51;4.20;59.70
74101;DHT22;62462;52.530;21.682;2023-04-06T02:01:16;4.20;59.80
74101;DHT22;62462;52.530;21.682;2023-04-06T02:03:42;4.20;60.00
74101;DHT22;62462;52.530;21.682;2023-04-06T02:06:08;4.20;60.90
74101;DHT22;62462;52.530;21.682;2023-04-06T02:08:34;4.20;60.10
74101;DHT22;62462;52.530;21.682;2023-04-06T02:11:00;4.20;60.30
74101;DHT22;62462;52.530;21.682;2023-04-06T02:13:26;4.20;60.10
74101;DHT22;62462;52.530;21.682;2023-04-06T02:15:52;4.30;60.20
74101;DHT22;62462;52.530;21.682;2023-04-06T02:18:18;4.30;60.00
74101;DHT22;62462;52.530;21.682;2023-04-06T02:20:44;4.30;61.00
74101;DHT22;62462;52.530;21.682;2023-04-06T02:23:11;4.30;59.90
74101;DHT22;62462;52.530;21.682;2023-04-06T02:25:37;4.30;59.70
74101;DHT22;62462;52.530;21.682;2023-04-06T02:28:03;4.30;59.70
74101;DHT22;62462;52.530;21.682;2023-04-06T02:30:29;4.30;59.70
74101;DHT22;62462;52.530;21.682;2023-04-06T02:32:57;4.30;59.70
74101;DHT22;62462;52.530;21.682;2023-04-06T02:35:24;4.30;59.70
74101;DHT22;62462;52.530;21.682;2023-04-06T02:37:50;4.30;59.60
74101;DHT22;62462;52.530;21.682;2023-04-06T02:40:16;4.30;59.60
74101;DHT22;62462;52.530;21.682;2023-04-06T02:42:42;4.30;59.70
74101;DHT22;62462;52.530;21.682;2023-04-06T02:45:08;4.30;59.80
74101;DHT22;62462;52.530;21.682;2023-04-06T02:47:34;4.30;59.80
74101;DHT22;62462;52.530;21.682;2023-04-06T02:50:00;4.30;59.70
74101;DHT22;62462;52.530;21.682;2023-04-06T02:52:26;4.30;59.60
74101;DHT22;62462;52.530;21.682;2023-04-06T02:54:52;4.30;59.60
74101;DHT22;62462;52.530;21.682;2023-04-06T02:57:18;4.30;59.60
74101;DHT22;62462;52.530;21.682;2023-04-06T02:59:43;4.30;59.50
74101;DHT22;62462;52.530;21.682;2023-04-06T03:02:09;4.30;59.50
74101;DHT22;62462;52.530;21.682;2023-04-06T03:04:35;4.30;59.50
74101;DHT22;62462;52.530;21.682;2023-04-06T03:07:01;4.30;59.60
74101;DHT22;62462;52.530;21.682;2023-04-06T03:09:27;4.30;59.60
74101;DHT22;62462;52.530;21.682;2023-04-06T03:11:53;4.40;59.50
74101;DHT22;62462;52.530;21.682;2023-04-06T03:14:19;4.40;59.40
74101;DHT22;62462;52.530;21.682;2023-04-06T03:16:48;4.40;59.30
74101;DHT22;62462;52.530;21.682;2023-04-06T03:19:14;4.40;59.40
74101;DHT22;62462;52.530;21.682;2023-04-06T03:21:40;4.30;59.30
74101;DHT22;62462;52.530;21.682;2023-04-06T03:24:07;4.30;59.20
74101;DHT22;62462;52.530;21.682;2023-04-06T03:26:33;4.30;59.20
74101;DHT22;62462;52.530;21.682;2023-04-06T03:28:59;4.30;59.20
74101;DHT22;62462;52.530;21.682;2023-04-06T03:31:26;4.30;59.20
74101;DHT22;62462;52.530;21.682;2023-04-06T03:33:52;4.30;59.20
74101;DHT22;62462;52.530;21.682;2023-04-06T03:36:18;4.30;59.00
74101;DHT22;62462;52.530;21.682;2023-04-06T03:38:43;4.30;58.90
74101;DHT22;62462;52.530;21.682;2023-04-06T03:41:10;4.30;59.40
74101;DHT22;62462;52.530;21.682;2023-04-06T03:43:36;4.30;58.60
74101;DHT22;62462;52.530;21.682;2023-04-06T03:46:01;4.30;59.30
74101;DHT22;62462;52.530;21.682;2023-04-06T03:48:27;4.20;58.30
74101;DHT22;62462;52.530;21.682;2023-04-06T03:50:53;4.20;58.30
74101;DHT22;62462;52.530;21.682;2023-04-06T03:53:19;4.20;58.20
74101;DHT22;62462;52.530;21.682;2023-04-06T03:55:45;4.20;58.10
74101;DHT22;62462;52.530;21.682;2023-04-06T03:58:11;4.20;58.10
74101;DHT22;62462;52.530;21.682;2023-04-06T04:00:37;4.30;58.20
74101;DHT22;62462;52.530;21.682;2023-04-06T04:03:03;4.20;58.20
74101;DHT22;62462;52.530;21.682;2023-04-06T04:05:29;4.30;58.20
74101;DHT22;62462;52.530;21.682;2023-04-06T04:07:55;4.20;58.00
74101;DHT22;62462;52.530;21.682;2023-04-06T04:10:21;4.20;58.00
74101;DHT22;62462;52.530;21.682;2023-04-06T04:12:46;4.20;58.20
74101;DHT22;62462;52.530;21.682;2023-04-06T04:15:12;4.20;58.40
74101;DHT22;62462;52.530;21.682;2023-04-06T04:17:38;4.20;58.40
74101;DHT22;62462;52.530;21.682;2023-04-06T04:20:05;4.20;58.30
74101;DHT22;62462;52.530;21.682;2023-04-06T04:22:31;4.20;59.30
74101;DHT22;62462;52.530;21.682;2023-04-06T04:24:57;4.20;58.50
74101;DHT22;62462;52.530;21.682;2023-04-06T04:27:23;4.20;58.60
74101;DHT22;62462;52.530;21.682;2023-04-06T04:29:48;4.20;58.50
74101;DHT22;62462;52.530;21.682;2023-04-06T04:32:15;4.20;58.50
74101;DHT22;62462;52.530;21.682;2023-04-06T04:34:40;4.20;58.60
74101;DHT22;62462;52.530;21.682;2023-04-06T04:37:06;4.20;58.60
74101;DHT22;62462;52.530;21.682;2023-04-06T04:39:32;4.30;58.80
74101;DHT22;62462;52.530;21.682;2023-04-06T04:41:58;4.30;58.70
74101;DHT22;62462;52.530;21.682;2023-04-06T04:44:24;4.30;58.70
74101;DHT22;62462;52.530;21.682;2023-04-06T04:46:50;4.30;58.80
74101;DHT22;62462;52.530;21.682;2023-04-06T04:49:16;4.30;58.80
74101;DHT22;62462;52.530;21.682;2023-04-06T04:51:42;4.30;58.80
74101;DHT22;62462;52.530;21.682;2023-04-06T04:54:07;4.30;58.90
74101;DHT22;62462;52.530;21.682;2023-04-06T04:56:33;4.40;58.90
74101;DHT22;62462;52.530;21.682;2023-04-06T04:58:59;4.40;58.80
74101;DHT22;62462;52.530;21.682;2023-04-06T05:01:25;4.50;59.00
74101;DHT22;62462;52.530;21.682;2023-04-06T05:03:51;4.50;58.90
74101;DHT22;62462;52.530;21.682;2023-04-06T05:06:17;4.50;59.00
74101;DHT22;62462;52.530;21.682;2023-04-06T05:08:44;4.60;59.00
74101;DHT22;62462;52.530;21.682;2023-04-06T05:11:10;4.60;58.90
74101;DHT22;62462;52.530;21.682;2023-04-06T05:13:36;4.70;58.90
74101;DHT22;62462;52.530;21.682;2023-04-06T05:16:02;4.70;58.90
74101;DHT22;62462;52.530;21.682;2023-04-06T05:18:28;4.70;59.00
74101;DHT22;62462;52.530;21.682;2023-04-06T05:20:54;4.70;59.00
74101;DHT22;62462;52.530;21.682;2023-04-06T05:23:20;4.70;59.20
74101;DHT22;62462;52.530;21.682;2023-04-06T05:25:46;4.70;58.90
74101;DHT22;62462;52.530;21.682;2023-04-06T05:28:12;4.70;59.10
74101;DHT22;62462;52.530;21.682;2023-04-06T05:30:39;4.70;59.40
74101;DHT22;62462;52.530;21.682;2023-04-06T05:33:06;4.70;59.50
74101;DHT22;62462;52.530;21.682;2023-04-06T05:35:31;4.80;59.50
74101;DHT22;62462;52.530;21.682;2023-04-06T05:37:57;4.90;59.50
74101;DHT22;62462;52.530;21.682;2023-04-06T05:40:23;4.90;59.40
74101;DHT22;62462;52.530;21.682;2023-04-06T05:42:49;5.00;59.30
74101;DHT22;62462;52.530;21.682;2023-04-06T05:45:15;5.00;59.30
74101;DHT22;62462;52.530;21.682;2023-04-06T05:47:44;5.00;59.20
74101;DHT22;62462;52.530;21.682;2023-04-06T05:50:11;5.00;59.20
74101;DHT22;62462;52.530;21.682;2023-04-06T05:52:37;5.00;59.30
74101;DHT22;62462;52.530;21.682;2023-04-06T05:55:04;5.00;59.20
74101;DHT22;62462;52.530;21.682;2023-04-06T05:57:30;5.00;59.20
74101;DHT22;62462;52.530;21.682;2023-04-06T05:59:56;5.00;59.60
74101;DHT22;62462;52.530;21.682;2023-04-06T06:02:22;5.10;59.70
74101;DHT22;62462;52.530;21.682;2023-04-06T06:04:48;5.10;59.70
74101;DHT22;62462;52.530;21.682;2023-04-06T06:07:16;5.10;59.80
74101;DHT22;62462;52.530;21.682;2023-04-06T06:09:43;5.10;59.70
74101;DHT22;62462;52.530;21.682;2023-04-06T06:12:08;5.10;60.00
74101;DHT22;62462;52.530;21.682;2023-04-06T06:14:34;5.10;60.20
74101;DHT22;62462;52.530;21.682;2023-04-06T06:17:01;5.10;60.20
74101;DHT22;62462;52.530;21.682;2023-04-06T06:19:26;5.20;60.40
74101;DHT22;62462;52.530;21.682;2023-04-06T06:21:52;5.20;60.30
74101;DHT22;62462;52.530;21.682;2023-04-06T06:24:18;5.20;60.30
74101;DHT22;62462;52.530;21.682;2023-04-06T06:26:44;5.20;60.20
74101;DHT22;62462;52.530;21.682;2023-04-06T06:29:10;5.10;60.30
74101;DHT22;62462;52.530;21.682;2023-04-06T06:31:36;5.10;60.60
74101;DHT22;62462;52.530;21.682;2023-04-06T06:34:02;5.10;60.70
74101;DHT22;62462;52.530;21.682;2023-04-06T06:36:28;5.10;60.90
74101;DHT22;62462;52.530;21.682;2023-04-06T06:38:56;5.10;61.10
74101;DHT22;62462;52.530;21.682;2023-04-06T06:41:22;5.10;61.40
74101;DHT22;62462;52.530;21.682;2023-04-06T06:43:48;5.00;61.50
74101;DHT22;62462;52.530;21.682;2023-04-06T06:46:14;5.10;61.70
74101;DHT22;62462;52.530;21.682;2023-04-06T06:48:40;5.10;62.10
74101;DHT22;62462;52.530;21.682;2023-04-06T06:51:05;5.20;62.10
74101;DHT22;62462;52.530;21.682;2023-04-06T06:53:31;5.30;61.90
74101;DHT22;62462;52.530;21.682;2023-04-06T06:55:57;5.40;62.00
74101;DHT22;62462;52.530;21.682;2023-04-06T06:58:23;5.40;62.00
74101;DHT22;62462;52.530;21.682;2023-04-06T07:00:49;5.40;62.00
74101;DHT22;62462;52.530;21.682;2023-04-06T07:03:15;5.30;61.80
74101;DHT22;62462;52.530;21.682;2023-04-06T07:05:47;5.30;62.30
74101;DHT22;62462;52.530;21.682;2023-04-06T07:08:19;5.30;62.50
74101;DHT22;62462;52.530;21.682;2023-04-06T07:10:45;5.20;62.80
74101;DHT22;62462;52.530;21.682;2023-04-06T07:13:11;5.10;63.00
74101;DHT22;62462;52.530;21.682;2023-04-06T07:15:37;5.10;63.00
74101;DHT22;62462;52.530;21.682;2023-04-06T07:18:03;5.00;63.40
74101;DHT22;62462;52.530;21.682;2023-04-06T07:20:29;5.00;63.50
74101;DHT22;62462;52.530;21.682;2023-04-06T07:22:55;5.00;63.90
74101;DHT22;62462;52.530;21.682;2023-04-06T07:25:21;5.00;64.00
74101;DHT22;62462;52.530;21.682;2023-04-06T07:27:47;5.00;63.80
74101;DHT22;62462;52.530;21.682;2023-04-06T07:30:13;5.00;63.70
74101;DHT22;62462;52.530;21.682;2023-04-06T07:32:39;5.00;63.90
74101;DHT22;62462;52.530;21.682;2023-04-06T07:35:05;5.00;63.80
74101;DHT22;62462;52.530;21.682;2023-04-06T07:37:31;4.90;64.10
74101;DHT22;62462;52.530;21.682;2023-04-06T07:39:57;5.00;64.40
74101;DHT22;62462;52.530;21.682;2023-04-06T07:42:23;5.00;64.60
74101;DHT22;62462;52.530;21.682;2023-04-06T07:44:49;4.90;64.70
74101;DHT22;62462;52.530;21.682;2023-04-06T07:47:15;5.00;64.70
74101;DHT22;62462;52.530;21.682;2023-04-06T07:49:41;5.10;64.70
74101;DHT22;62462;52.530;21.682;2023-04-06T07:52:06;5.10;65.00
74101;DHT22;62462;52.530;21.682;2023-04-06T07:54:32;5.20;64.90
74101;DHT22;62462;52.530;21.682;2023-04-06T07:56:58;5.20;64.80
74101;DHT22;62462;52.530;21.682;2023-04-06T07:59:24;5.20;65.10
74101;DHT22;62462;52.530;21.682;2023-04-06T08:01:50;5.10;65.40
74101;DHT22;62462;52.530;21.682;2023-04-06T08:04:16;5.20;65.40
74101;DHT22;62462;52.530;21.682;2023-04-06T08:06:41;5.10;65.90
74101;DHT22;62462;52.530;21.682;2023-04-06T08:09:07;5.00;66.80
74101;DHT22;62462;52.530;21.682;2023-04-06T08:11:33;4.90;67.30
74101;DHT22;62462;52.530;21.682;2023-04-06T08:13:59;4.80;67.90
74101;DHT22;62462;52.530;21.682;2023-04-06T08:16:25;4.80;68.20
74101;DHT22;62462;52.530;21.682;2023-04-06T08:18:51;4.80;68.80
74101;DHT22;62462;52.530;21.682;2023-04-06T08:21:18;4.90;68.30
74101;DHT22;62462;52.530;21.682;2023-04-06T08:23:43;4.90;68.30
74101;DHT22;62462;52.530;21.682;2023-04-06T08:26:11;4.90;68.70
74101;DHT22;62462;52.530;21.682;2023-04-06T08:28:37;4.90;69.20
74101;DHT22;62462;52.530;21.682;2023-04-06T08:31:06;4.90;69.20
74101;DHT22;62462;52.530;21.682;2023-04-06T08:33:33;4.90;69.20
74101;DHT22;62462;52.530;21.682;2023-04-06T08:36:12;4.90;69.40
74101;DHT22;62462;52.530;21.682;2023-04-06T08:38:38;4.90;69.60
74101;DHT22;62462;52.530;21.682;2023-04-06T08:44:18;4.80;71.20
74101;DHT22;62462;52.530;21.682;2023-04-06T08:46:25;4.80;70.30
74101;DHT22;62462;52.530;21.682;2023-04-06T08:48:59;4.70;70.70
74101;DHT22;62462;52.530;21.682;2023-04-06T08:51:26;4.70;70.60
74101;DHT22;62462;52.530;21.682;2023-04-06T08:53:53;4.60;71.20
74101;DHT22;62462;52.530;21.682;2023-04-06T08:56:23;4.60;71.40
74101;DHT22;62462;52.530;21.682;2023-04-06T08:58:49;4.60;71.70
74101;DHT22;62462;52.530;21.682;2023-04-06T09:01:25;4.50;71.70
74101;DHT22;62462;52.530;21.682;2023-04-06T09:03:53;4.60;72.00
74101;DHT22;62462;52.530;21.682;2023-04-06T09:06:21;4.60;72.10
74101;DHT22;62462;52.530;21.682;2023-04-06T09:08:47;4.50;72.40
74101;DHT22;62462;52.530;21.682;2023-04-06T09:11:13;4.50;72.40
74101;DHT22;62462;52.530;21.682;2023-04-06T09:13:52;4.50;72.60
74101;DHT22;62462;52.530;21.682;2023-04-06T09:16:19;4.50;72.60
74101;DHT22;62462;52.530;21.682;2023-04-06T09:18:46;4.50;73.30
74101;DHT22;62462;52.530;21.682;2023-04-06T09:21:13;4.60;73.50
74101;DHT22;62462;52.530;21.682;2023-04-06T09:23:39;4.60;73.40
74101;DHT22;62462;52.530;21.682;2023-04-06T09:26:13;4.60;73.40
74101;DHT22;62462;52.530;21.682;2023-04-06T09:31:08;4.60;73.30
74101;DHT22;62462;52.530;21.682;2023-04-06T09:33:38;4.60;73.10
74101;DHT22;62462;52.530;21.682;2023-04-06T09:36:04;4.60;73.10
74101;DHT22;62462;52.530;21.682;2023-04-06T09:38:30;4.70;72.90
74101;DHT22;62462;52.530;21.682;2023-04-06T09:40:56;4.70;73.20
74101;DHT22;62462;52.530;21.682;2023-04-06T09:43:27;4.70;73.10
74101;DHT22;62462;52.530;21.682;2023-04-06T09:45:53;4.70;73.90
74101;DHT22;62462;52.530;21.682;2023-04-06T09:48:21;4.70;73.00
74101;DHT22;62462;52.530;21.682;2023-04-06T09:50:55;4.80;73.10
74101;DHT22;62462;52.530;21.682;2023-04-06T09:53:27;4.80;73.30
74101;DHT22;62462;52.530;21.682;2023-04-06T09:55:58;4.80;73.10
74101;DHT22;62462;52.530;21.682;2023-04-06T09:58:28;4.80;73.20
74101;DHT22;62462;52.530;21.682;2023-04-06T10:06:22;4.80;72.70
74101;DHT22;62462;52.530;21.682;2023-04-06T10:08:50;4.90;72.80
74101;DHT22;62462;52.530;21.682;2023-04-06T10:11:18;4.90;72.90
74101;DHT22;62462;52.530;21.682;2023-04-06T10:13:45;4.90;73.10
74101;DHT22;62462;52.530;21.682;2023-04-06T10:16:14;5.00;72.60
74101;DHT22;62462;52.530;21.682;2023-04-06T10:18:46;5.00;72.40
74101;DHT22;62462;52.530;21.682;2023-04-06T10:21:15;5.10;72.50
74101;DHT22;62462;52.530;21.682;2023-04-06T10:23:49;5.10;72.40
74101;DHT22;62462;52.530;21.682;2023-04-06T10:26:19;5.20;72.60
74101;DHT22;62462;52.530;21.682;2023-04-06T10:28:47;5.20;72.40
74101;DHT22;62462;52.530;21.682;2023-04-06T10:31:13;5.20;72.00
74101;DHT22;62462;52.530;21.682;2023-04-06T10:33:39;5.30;72.40
74101;DHT22;62462;52.530;21.682;2023-04-06T10:36:11;5.30;72.00
74101;DHT22;62462;52.530;21.682;2023-04-06T10:38:41;5.30;72.30
74101;DHT22;62462;52.530;21.682;2023-04-06T10:41:09;5.30;72.40
74101;DHT22;62462;52.530;21.682;2023-04-06T10:43:36;5.30;72.40
74101;DHT22;62462;52.530;21.682;2023-04-06T10:46:03;5.40;72.40
74101;DHT22;62462;52.530;21.682;2023-04-06T10:48:43;5.40;72.10
74101;DHT22;62462;52.530;21.682;2023-04-06T10:51:15;5.40;72.20
74101;DHT22;62462;52.530;21.682;2023-04-06T10:53:42;5.30;71.90
74101;DHT22;62462;52.530;21.682;2023-04-06T10:56:22;5.30;72.00
74101;DHT22;62462;52.530;21.682;2023-04-06T10:58:49;5.40;72.20
74101;DHT22;62462;52.530;21.682;2023-04-06T11:01:17;5.50;73.00
74101;DHT22;62462;52.530;21.682;2023-04-06T11:06:09;5.60;72.10
74101;DHT22;62462;52.530;21.682;2023-04-06T11:08:35;5.60;71.90
74101;DHT22;62462;52.530;21.682;2023-04-06T11:11:10;5.60;71.90
74101;DHT22;62462;52.530;21.682;2023-04-06T11:13:50;5.70;71.80
74101;DHT22;62462;52.530;21.682;2023-04-06T11:16:22;5.70;71.50
74101;DHT22;62462;52.530;21.682;2023-04-06T11:18:55;5.80;71.30
74101;DHT22;62462;52.530;21.682;2023-04-06T11:21:45;5.80;71.00
74101;DHT22;62462;52.530;21.682;2023-04-06T11:24:20;5.90;71.00
74101;DHT22;62462;52.530;21.682;2023-04-06T11:26:54;6.00;71.00
74101;DHT22;62462;52.530;21.682;2023-04-06T11:29:22;6.00;71.00
74101;DHT22;62462;52.530;21.682;2023-04-06T11:31:53;6.10;70.40
74101;DHT22;62462;52.530;21.682;2023-04-06T11:34:20;6.10;70.60
74101;DHT22;62462;52.530;21.682;2023-04-06T11:36:48;6.20;70.50
74101;DHT22;62462;52.530;21.682;2023-04-06T11:39:21;6.10;70.00
74101;DHT22;62462;52.530;21.682;2023-04-06T11:41:48;6.10;70.40
74101;DHT22;62462;52.530;21.682;2023-04-06T11:44:15;6.10;70.20
74101;DHT22;62462;52.530;21.682;2023-04-06T11:46:41;6.20;70.30
74101;DHT22;62462;52.530;21.682;2023-04-06T11:49:06;6.10;70.30
74101;DHT22;62462;52.530;21.682;2023-04-06T11:51:36;6.10;69.80
74101;DHT22;62462;52.530;21.682;2023-04-06T11:54:02;6.10;69.80
74101;DHT22;62462;52.530;21.682;2023-04-06T11:56:29;6.10;70.00
74101;DHT22;62462;52.530;21.682;2023-04-06T11:58:57;6.20;70.10
74101;DHT22;62462;52.530;21.682;2023-04-06T12:01:24;6.10;70.00
74101;DHT22;62462;52.530;21.682;2023-04-06T12:03:50;6.10;70.10
74101;DHT22;62462;52.530;21.682;2023-04-06T12:06:17;6.20;70.20
74101;DHT22;62462;52.530;21.682;2023-04-06T12:08:43;6.10;70.20
74101;DHT22;62462;52.530;21.682;2023-04-06T12:11:10;6.20;69.90
74101;DHT22;62462;52.530;21.682;2023-04-06T12:13:37;6.20;69.80
74101;DHT22;62462;52.530;21.682;2023-04-06T12:16:03;6.20;69.80
74101;DHT22;62462;52.530;21.682;2023-04-06T12:18:30;6.20;70.00
74101;DHT22;62462;52.530;21.682;2023-04-06T12:20:56;6.20;70.10
74101;DHT22;62462;52.530;21.682;2023-04-06T12:23:21;6.20;70.10
74101;DHT22;62462;52.530;21.682;2023-04-06T12:25:47;6.20;69.90
74101;DHT22;62462;52.530;21.682;2023-04-06T12:28:13;6.20;69.90
74101;DHT22;62462;52.530;21.682;2023-04-06T12:30:39;6.20;70.10
74101;DHT22;62462;52.530;21.682;2023-04-06T12:33:06;6.30;70.00
74101;DHT22;62462;52.530;21.682;2023-04-06T12:35:36;6.30;69.90
74101;DHT22;62462;52.530;21.682;2023-04-06T12:38:02;6.30;69.90
74101;DHT22;62462;52.530;21.682;2023-04-06T12:40:28;6.30;70.00
74101;DHT22;62462;52.530;21.682;2023-04-06T12:42:54;6.40;70.80
74101;DHT22;62462;52.530;21.682;2023-04-06T12:45:20;6.40;70.00
74101;DHT22;62462;52.530;21.682;2023-04-06T12:47:46;6.40;69.90
74101;DHT22;62462;52.530;21.682;2023-04-06T12:50:12;6.50;70.00
74101;DHT22;62462;52.530;21.682;2023-04-06T12:52:38;6.50;69.80
74101;DHT22;62462;52.530;21.682;2023-04-06T12:55:04;6.50;69.60
74101;DHT22;62462;52.530;21.682;2023-04-06T12:57:31;6.60;69.80
74101;DHT22;62462;52.530;21.682;2023-04-06T12:59:57;6.60;69.90
74101;DHT22;62462;52.530;21.682;2023-04-06T13:02:23;6.60;69.90
74101;DHT22;62462;52.530;21.682;2023-04-06T13:04:49;6.60;69.70
74101;DHT22;62462;52.530;21.682;2023-04-06T13:07:15;6.60;69.60
74101;DHT22;62462;52.530;21.682;2023-04-06T13:09:41;6.60;69.70
74101;DHT22;62462;52.530;21.682;2023-04-06T13:12:07;6.60;69.50
74101;DHT22;62462;52.530;21.682;2023-04-06T13:14:33;6.60;70.40
74101;DHT22;62462;52.530;21.682;2023-04-06T13:16:59;6.60;69.70
74101;DHT22;62462;52.530;21.682;2023-04-06T13:19:25;6.60;69.70
74101;DHT22;62462;52.530;21.682;2023-04-06T13:21:52;6.60;69.80
74101;DHT22;62462;52.530;21.682;2023-04-06T13:24:18;6.60;69.80
74101;DHT22;62462;52.530;21.682;2023-04-06T13:26:45;6.60;69.90
74101;DHT22;62462;52.530;21.682;2023-04-06T13:29:11;6.70;69.80
74101;DHT22;62462;52.530;21.682;2023-04-06T13:31:37;6.60;69.90
74101;DHT22;62462;52.530;21.682;2023-04-06T13:34:04;6.70;69.80
74101;DHT22;62462;52.530;21.682;2023-04-06T13:36:30;6.60;69.60
74101;DHT22;62462;52.530;21.682;2023-04-06T13:38:58;6.60;69.70
74101;DHT22;62462;52.530;21.682;2023-04-06T13:41:25;6.60;69.90
74101;DHT22;62462;52.530;21.682;2023-04-06T13:43:52;6.70;70.00
74101;DHT22;62462;52.530;21.682;2023-04-06T13:46:18;6.70;70.20
74101;DHT22;62462;52.530;21.682;2023-04-06T13:48:44;6.70;70.10
74101;DHT22;62462;52.530;21.682;2023-04-06T13:51:11;6.70;70.20
74101;DHT22;62462;52.530;21.682;2023-04-06T13:53:38;6.70;70.10
74101;DHT22;62462;52.530;21.682;2023-04-06T13:56:04;6.60;70.20
74101;DHT22;62462;52.530;21.682;2023-04-06T13:58:30;6.70;70.10
74101;DHT22;62462;52.530;21.682;2023-04-06T14:01:05;6.60;70.80
74101;DHT22;62462;52.530;21.682;2023-04-06T14:03:31;6.60;70.50
74101;DHT22;62462;52.530;21.682;2023-04-06T14:05:58;6.60;70.80
74101;DHT22;62462;52.530;21.682;2023-04-06T14:08:24;6.60;71.10
74101;DHT22;62462;52.530;21.682;2023-04-06T14:10:50;6.60;70.90
74101;DHT22;62462;52.530;21.682;2023-04-06T14:13:16;6.50;70.90
74101;DHT22;62462;52.530;21.682;2023-04-06T14:15:42;6.50;71.00
74101;DHT22;62462;52.530;21.682;2023-04-06T14:18:08;6.50;72.20
74101;DHT22;62462;52.530;21.682;2023-04-06T14:20:34;6.50;72.00
74101;DHT22;62462;52.530;21.682;2023-04-06T14:23:01;6.40;72.40
74101;DHT22;62462;52.530;21.682;2023-04-06T14:25:27;6.40;72.90
74101;DHT22;62462;52.530;21.682;2023-04-06T14:27:53;6.40;73.40
74101;DHT22;62462;52.530;21.682;2023-04-06T14:30:19;6.30;73.10
74101;DHT22;62462;52.530;21.682;2023-04-06T14:32:45;6.40;73.80
74101;DHT22;62462;52.530;21.682;2023-04-06T14:35:11;6.40;73.70
74101;DHT22;62462;52.530;21.682;2023-04-06T14:37:37;6.40;73.80
74101;DHT22;62462;52.530;21.682;2023-04-06T14:40:03;6.40;74.50
74101;DHT22;62462;52.530;21.682;2023-04-06T14:42:29;6.40;74.60
74101;DHT22;62462;52.530;21.682;2023-04-06T14:44:55;6.30;74.80
74101;DHT22;62462;52.530;21.682;2023-04-06T14:47:21;6.40;74.60
74101;DHT22;62462;52.530;21.682;2023-04-06T14:49:51;6.40;75.00
74101;DHT22;62462;52.530;21.682;2023-04-06T14:52:17;6.40;75.00
74101;DHT22;62462;52.530;21.682;2023-04-06T14:54:43;6.40;74.60
74101;DHT22;62462;52.530;21.682;2023-04-06T14:57:09;6.40;74.30
74101;DHT22;62462;52.530;21.682;2023-04-06T14:59:35;6.40;73.90
74101;DHT22;62462;52.530;21.682;2023-04-06T15:02:04;6.40;74.20
74101;DHT22;62462;52.530;21.682;2023-04-06T15:04:30;6.40;74.20
74101;DHT22;62462;52.530;21.682;2023-04-06T15:06:55;6.40;74.80
74101;DHT22;62462;52.530;21.682;2023-04-06T15:09:22;6.40;75.00
74101;DHT22;62462;52.530;21.682;2023-04-06T15:11:47;6.40;75.10
74101;DHT22;62462;52.530;21.682;2023-04-06T15:14:13;6.40;75.10
74101;DHT22;62462;52.530;21.682;2023-04-06T15:16:40;6.40;75.70
74101;DHT22;62462;52.530;21.682;2023-04-06T15:19:05;6.30;75.90
74101;DHT22;62462;52.530;21.682;2023-04-06T15:21:31;6.30;76.10
74101;DHT22;62462;52.530;21.682;2023-04-06T15:23:58;6.30;75.90
74101;DHT22;62462;52.530;21.682;2023-04-06T15:26:23;6.30;75.80
74101;DHT22;62462;52.530;21.682;2023-04-06T15:28:49;6.30;76.00
74101;DHT22;62462;52.530;21.682;2023-04-06T15:31:16;6.40;76.30
74101;DHT22;62462;52.530;21.682;2023-04-06T15:33:43;6.30;76.30
74101;DHT22;62462;52.530;21.682;2023-04-06T15:36:24;6.30;76.20
74101;DHT22;62462;52.530;21.682;2023-04-06T15:38:52;6.30;76.70
74101;DHT22;62462;52.530;21.682;2023-04-06T15:41:18;6.30;77.00